sensor_id;sensor_type;location;lat;lon;timestamp;temperature;humidity
51557;DHT22;38766;53.194;5.532;2023-03-23T00:02:28;10.10;99.90
51557;DHT22;38766;53.194;5.532;2023-03-23T00:04:54;10.10;99.90
51557;DHT22;38766;53.194;5.532;2023-03-23T00:07:20;10.10;99.90
51557;DHT22;38766;53.194;5.532;2023-03-23T00:09:53;10.10;99.90
51557;DHT22;38766;53.194;5.532;2023-03-23T00:12:27;10.20;99.90
51557;DHT22;38766;53.194;5.532;2023-03-23T00:15:06;10.20;99.90
51557;DHT22;38766;53.194;5.532;2023-03-23T00:17:34;10.20;99.90
51557;DHT22;38766;53.194;5.532;2023-03-23T00:20:00;10.20;99.90
51557;DHT22;38766;53.194;5.532;2023-03-23T00:22:27;10.20;99.90
51557;DHT22;38766;53.194;5.532;2023-03-23T00:24:53;10.20;99.90
51557;DHT22;38766;53.194;5.532;2023-03-23T00:27:20;10.30;99.90
51557;DHT22;38766;53.194;5.532;2023-03-23T00:29:50;10.30;99.90
51557;DHT22;38766;53.194;5.532;2023-03-23T00:32:21;10.30;99.90
51557;DHT22;38766;53.194;5.532;2023-03-23T00:34:53;10.40;99.90
51557;DHT22;38766;53.194;5.532;2023-03-23T00:37:18;10.40;99.90
51557;DHT22;38766;53.194;5.532;2023-03-23T00:39:44;10.30;99.90
51557;DHT22;38766;53.194;5.532;2023-03-23T00:42:15;10.30;99.90
51557;DHT22;38766;53.194;5.532;2023-03-23T00:44:42;10.40;99.90
51557;DHT22;38766;53.194;5.532;2023-03-23T00:47:10;10.30;99.90
51557;DHT22;38766;53.194;5.532;2023-03-23T00:49:36;10.40;99.90
51557;DHT22;38766;53.194;5.532;2023-03-23T00:52:03;10.40;99.90
51557;DHT22;38766;53.194;5.532;2023-03-23T00:54:29;10.40;99.90
51557;DHT22;38766;53.194;5.532;2023-03-23T00:56:55;10.40;99.90
51557;DHT22;38766;53.194;5.532;2023-03-23T00:59:22;10.40;99.90
51557;DHT22;38766;53.194;5.532;2023-03-23T01:01:48;10.40;99.90
51557;DHT22;38766;53.194;5.532;2023-03-23T01:04:14;10.40;99.90
51557;DHT22;38766;53.194;5.532;2023-03-23T01:06:42;10.40;99.90
51557;DHT22;38766;53.194;5.532;2023-03-23T01:09:13;10.50;99.90
51557;DHT22;38766;53.194;5.532;2023-03-23T01:11:45;10.50;99.90
51557;DHT22;38766;53.194;5.532;2023-03-23T01:14:13;10.50;99.90
51557;DHT22;38766;53.194;5.532;2023-03-23T01:16:39;10.50;99.90
51557;DHT22;38766;53.194;5.532;2023-03-23T01:19:05;10.50;99.90
51557;DHT22;38766;53.194;5.532;2023-03-23T01:21:31;10.50;99.90
51557;DHT22;38766;53.194;5.532;2023-03-23T01:23:57;10.50;99.90
51557;DHT22;38766;53.194;5.532;2023-03-23T01:26:25;10.50;99.90
51557;DHT22;38766;53.194;5.532;2023-03-23T01:28:51;10.50;99.90
51557;DHT22;38766;53.194;5.532;2023-03-23T01:31:22;10.60;99.90
51557;DHT22;38766;53.194;5.532;2023-03-23T01:33:49;10.50;99.90
51557;DHT22;38766;53.194;5.532;2023-03-23T01:36:23;10.50;99.90
51557;DHT22;38766;53.194;5.532;2023-03-23T01:38:50;10.60;99.90
51557;DHT22;38766;53.194;5.532;2023-03-23T01:41:17;10.60;99.90
51557;DHT22;38766;53.194;5.532;2023-03-23T01:43:56;10.60;99.90
51557;DHT22;38766;53.194;5.532;2023-03-23T01:46:25;10.70;99.90
51557;DHT22;38766;53.194;5.532;2023-03-23T01:48:50;10.70;99.90
51557;DHT22;38766;53.194;5.532;2023-03-23T01:51:18;10.80;99.90
51557;DHT22;38766;53.194;5.532;2023-03-23T01:53:57;10.80;99.90
51557;DHT22;38766;53.194;5.532;2023-03-23T01:56:28;10.80;99.90
51557;DHT22;38766;53.194;5.532;2023-03-23T01:58:58;10.80;99.90
51557;DHT22;38766;53.194;5.532;2023-03-23T02:01:24;10.80;99.90
51557;DHT22;38766;53.194;5.532;2023-03-23T02:03:54;10.90;99.90
51557;DHT22;38766;53.194;5.532;2023-03-23T02:06:21;10.80;99.90
51557;DHT22;38766;53.194;5.532;2023-03-23T02:08:48;10.90;99.90
51557;DHT22;38766;53.194;5.532;2023-03-23T02:11:19;10.80;99.90
51557;DHT22;38766;53.194;5.532;2023-03-23T02:13:46;10.90;99.90
51557;DHT22;38766;53.194;5.532;2023-03-23T02:33:08;10.90;99.90
51557;DHT22;38766;53.194;5.532;2023-03-23T02:35:39;11.00;99.90
51557;DHT22;38766;53.194;5.532;2023-03-23T02:38:13;11.00;99.90
51557;DHT22;38766;53.194;5.532;2023-03-23T02:40:43;11.10;99.90
51557;DHT22;38766;53.194;5.532;2023-03-23T02:43:14;11.00;99.90
51557;DHT22;38766;53.194;5.532;2023-03-23T02:45:42;11.00;99.90
51557;DHT22;38766;53.194;5.532;2023-03-23T02:48:09;11.10;99.90
51557;DHT22;38766;53.194;5.532;2023-03-23T02:50:37;11.10;99.90
51557;DHT22;38766;53.194;5.532;2023-03-23T02:53:07;11.10;99.90
51557;DHT22;38766;53.194;5.532;2023-03-23T02:55:36;11.20;99.90
51557;DHT22;38766;53.194;5.532;2023-03-23T02:58:08;11.20;99.90
51557;DHT22;38766;53.194;5.532;2023-03-23T03:00:34;11.20;99.90
51557;DHT22;38766;53.194;5.532;2023-03-23T03:03:00;11.20;99.90
51557;DHT22;38766;53.194;5.532;2023-03-23T03:05:38;11.20;99.90
51557;DHT22;38766;53.194;5.532;2023-03-23T03:08:30;11.20;99.90
51557;DHT22;38766;53.194;5.532;2023-03-23T03:11:04;11.20;99.90
51557;DHT22;38766;53.194;5.532;2023-03-23T03:21:34;11.10;99.90
51557;DHT22;38766;53.194;5.532;2023-03-23T03:24:03;11.10;99.90
51557;DHT22;38766;53.194;5.532;2023-03-23T03:26:31;11.00;99.90
51557;DHT22;38766;53.194;5.532;2023-03-23T03:28:58;11.00;99.90
51557;DHT22;38766;53.194;5.532;2023-03-23T03:31:32;10.80;99.90
51557;DHT22;38766;53.194;5.532;2023-03-23T03:33:59;10.70;99.90
51557;DHT22;38766;53.194;5.532;2023-03-23T03:36:32;10.60;99.90
51557;DHT22;38766;53.194;5.532;2023-03-23T03:39:03;10.70;99.90
51557;DHT22;38766;53.194;5.532;2023-03-23T03:41:33;10.50;99.90
51557;DHT22;38766;53.194;5.532;2023-03-23T03:44:00;10.60;99.90
51557;DHT22;38766;53.194;5.532;2023-03-23T03:46:26;10.50;99.90
51557;DHT22;38766;53.194;5.532;2023-03-23T03:48:55;10.60;99.90
51557;DHT22;38766;53.194;5.532;2023-03-23T03:51:22;10.60;99.90
51557;DHT22;38766;53.194;5.532;2023-03-23T03:53:48;10.70;99.90
51557;DHT22;38766;53.194;5.532;2023-03-23T03:56:13;10.70;99.90
51557;DHT22;38766;53.194;5.532;2023-03-23T03:58:39;10.70;99.90
51557;DHT22;38766;53.194;5.532;2023-03-23T04:01:08;10.70;99.90
51557;DHT22;38766;53.194;5.532;2023-03-23T04:03:35;10.70;99.90
51557;DHT22;38766;53.194;5.532;2023-03-23T04:06:02;10.70;99.90
51557;DHT22;38766;53.194;5.532;2023-03-23T04:08:28;10.80;99.90
51557;DHT22;38766;53.194;5.532;2023-03-23T04:10:54;10.70;99.90
51557;DHT22;38766;53.194;5.532;2023-03-23T04:13:20;10.70;99.90
51557;DHT22;38766;53.194;5.532;2023-03-23T04:15:46;10.70;99.90
51557;DHT22;38766;53.194;5.532;2023-03-23T04:18:13;10.80;99.90
51557;DHT22;38766;53.194;5.532;2023-03-23T04:20:41;10.80;99.90
51557;DHT22;38766;53.194;5.532;2023-03-23T04:23:08;10.70;99.90
51557;DHT22;38766;53.194;5.532;2023-03-23T04:25:33;10.70;99.90
51557;DHT22;38766;53.194;5.532;2023-03-23T04:27:59;10.70;99.90
51557;DHT22;38766;53.194;5.532;2023-03-23T04:30:27;10.60;99.90
51557;DHT22;38766;53.194;5.532;2023-03-23T04:32:54;10.60;99.90
51557;DHT22;38766;53.194;5.532;2023-03-23T04:35:23;10.60;99.90
51557;DHT22;38766;53.194;5.532;2023-03-23T04:37:51;10.60;99.90
51557;DHT22;38766;53.194;5.532;2023-03-23T04:40:18;10.60;99.90
51557;DHT22;38766;53.194;5.532;2023-03-23T04:42:45;10.50;99.90
51557;DHT22;38766;53.194;5.532;2023-03-23T04:45:13;10.60;99.90
51557;DHT22;38766;53.194;5.532;2023-03-23T04:47:41;10.50;99.90
51557;DHT22;38766;53.194;5.532;2023-03-23T04:50:12;10.50;99.90
51557;DHT22;38766;53.194;5.532;2023-03-23T04:52:39;10.40;99.90
51557;DHT22;38766;53.194;5.532;2023-03-23T04:55:07;10.40;99.90
51557;DHT22;38766;53.194;5.532;2023-03-23T04:57:34;10.30;99.90
51557;DHT22;38766;53.194;5.532;2023-03-23T05:00:01;10.30;99.90
51557;DHT22;38766;53.194;5.532;2023-03-23T05:02:36;10.30;99.90
51557;DHT22;38766;53.194;5.532;2023-03-23T05:05:02;10.40;99.90
51557;DHT22;38766;53.194;5.532;2023-03-23T05:07:28;10.30;99.90
51557;DHT22;38766;53.194;5.532;2023-03-23T05:09:53;10.20;99.90
51557;DHT22;38766;53.194;5.532;2023-03-23T05:12:19;10.20;99.90
51557;DHT22;38766;53.194;5.532;2023-03-23T05:14:45;10.20;99.90
51557;DHT22;38766;53.194;5.532;2023-03-23T05:17:11;10.10;99.90
51557;DHT22;38766;53.194;5.532;2023-03-23T05:19:38;10.10;99.90
51557;DHT22;38766;53.194;5.532;2023-03-23T05:22:03;10.10;99.90
51557;DHT22;38766;53.194;5.532;2023-03-23T05:24:32;10.10;99.90
51557;DHT22;38766;53.194;5.532;2023-03-23T05:27:01;10.10;99.90
51557;DHT22;38766;53.194;5.532;2023-03-23T05:29:27;10.10;99.90
51557;DHT22;38766;53.194;5.532;2023-03-23T05:31:56;10.00;99.90
51557;DHT22;38766;53.194;5.532;2023-03-23T05:34:25;10.10;99.90
51557;DHT22;38766;53.194;5.532;2023-03-23T05:36:52;10.10;99.90
51557;DHT22;38766;53.194;5.532;2023-03-23T05:39:19;10.00;99.90
51557;DHT22;38766;53.194;5.532;2023-03-23T05:41:44;10.10;99.90
51557;DHT22;38766;53.194;5.532;2023-03-23T05:44:10;10.00;99.90
51557;DHT22;38766;53.194;5.532;2023-03-23T05:46:39;10.00;99.90
51557;DHT22;38766;53.194;5.532;2023-03-23T05:49:04;10.00;99.90
51557;DHT22;38766;53.194;5.532;2023-03-23T05:51:30;9.90;99.90
51557;DHT22;38766;53.194;5.532;2023-03-23T05:53:56;9.90;99.90
51557;DHT22;38766;53.194;5.532;2023-03-23T05:56:22;9.80;99.90
51557;DHT22;38766;53.194;5.532;2023-03-23T05:58:48;9.80;99.90
51557;DHT22;38766;53.194;5.532;2023-03-23T06:01:14;9.70;99.90
51557;DHT22;38766;53.194;5.532;2023-03-23T06:03:41;9.60;99.90
51557;DHT22;38766;53.194;5.532;2023-03-23T06:06:10;9.60;99.90
51557;DHT22;38766;53.194;5.532;2023-03-23T06:08:36;9.50;99.90
51557;DHT22;38766;53.194;5.532;2023-03-23T06:11:03;9.50;99.90
51557;DHT22;38766;53.194;5.532;2023-03-23T06:13:29;9.50;99.90
51557;DHT22;38766;53.194;5.532;2023-03-23T06:15:55;9.50;99.90
51557;DHT22;38766;53.194;5.532;2023-03-23T06:18:24;9.50;99.90
51557;DHT22;38766;53.194;5.532;2023-03-23T06:20:50;9.50;99.90
51557;DHT22;38766;53.194;5.532;2023-03-23T06:23:16;9.50;99.90
51557;DHT22;38766;53.194;5.532;2023-03-23T06:25:43;9.50;99.90
51557;DHT22;38766;53.194;5.532;2023-03-23T06:28:09;9.60;99.90
51557;DHT22;38766;53.194;5.532;2023-03-23T06:30:36;9.60;99.90
51557;DHT22;38766;53.194;5.532;2023-03-23T06:33:02;9.70;99.90
51557;DHT22;38766;53.194;5.532;2023-03-23T06:35:31;9.70;99.90
51557;DHT22;38766;53.194;5.532;2023-03-23T06:37:57;9.70;99.90
51557;DHT22;38766;53.194;5.532;2023-03-23T06:40:27;9.70;99.90
51557;DHT22;38766;53.194;5.532;2023-03-23T06:42:54;9.70;99.90
51557;DHT22;38766;53.194;5.532;2023-03-23T06:45:19;9.70;99.90
51557;DHT22;38766;53.194;5.532;2023-03-23T06:47:46;9.70;99.90
51557;DHT22;38766;53.194;5.532;2023-03-23T06:50:17;9.80;99.90
51557;DHT22;38766;53.194;5.532;2023-03-23T06:52:50;9.80;99.90
51557;DHT22;38766;53.194;5.532;2023-03-23T06:55:17;9.80;99.90
51557;DHT22;38766;53.194;5.532;2023-03-23T06:57:44;9.80;99.90
51557;DHT22;38766;53.194;5.532;2023-03-23T07:00:11;9.80;99.90
51557;DHT22;38766;53.194;5.532;2023-03-23T07:02:39;9.80;99.90
51557;DHT22;38766;53.194;5.532;2023-03-23T07:05:07;9.80;99.90
51557;DHT22;38766;53.194;5.532;2023-03-23T07:07:32;9.90;99.90
51557;DHT22;38766;53.194;5.532;2023-03-23T07:09:58;9.80;99.90
51557;DHT22;38766;53.194;5.532;2023-03-23T07:12:24;9.90;99.90
51557;DHT22;38766;53.194;5.532;2023-03-23T07:14:49;9.80;99.90
51557;DHT22;38766;53.194;5.532;2023-03-23T07:17:15;9.90;99.90
51557;DHT22;38766;53.194;5.532;2023-03-23T07:19:41;9.90;99.90
51557;DHT22;38766;53.194;5.532;2023-03-23T07:22:07;10.00;99.90
51557;DHT22;38766;53.194;5.532;2023-03-23T07:24:33;10.10;99.90
51557;DHT22;38766;53.194;5.532;2023-03-23T07:26:59;10.30;99.90
51557;DHT22;38766;53.194;5.532;2023-03-23T07:29:25;10.50;99.90
51557;DHT22;38766;53.194;5.532;2023-03-23T07:31:52;10.70;99.90
51557;DHT22;38766;53.194;5.532;2023-03-23T07:34:18;10.80;99.90
51557;DHT22;38766;53.194;5.532;2023-03-23T07:36:45;10.90;99.90
51557;DHT22;38766;53.194;5.532;2023-03-23T07:39:11;11.00;99.90
51557;DHT22;38766;53.194;5.532;2023-03-23T07:41:37;11.00;99.90
51557;DHT22;38766;53.194;5.532;2023-03-23T07:44:03;11.00;99.90
51557;DHT22;38766;53.194;5.532;2023-03-23T07:46:29;11.00;99.90
51557;DHT22;38766;53.194;5.532;2023-03-23T07:48:55;10.90;99.90
51557;DHT22;38766;53.194;5.532;2023-03-23T07:51:22;10.90;99.90
51557;DHT22;38766;53.194;5.532;2023-03-23T07:53:48;11.00;99.90
51557;DHT22;38766;53.194;5.532;2023-03-23T07:56:15;11.10;99.90
51557;DHT22;38766;53.194;5.532;2023-03-23T07:58:47;11.20;99.90
51557;DHT22;38766;53.194;5.532;2023-03-23T08:01:13;11.40;99.90
51557;DHT22;38766;53.194;5.532;2023-03-23T08:03:39;11.40;99.90
51557;DHT22;38766;53.194;5.532;2023-03-23T08:06:05;11.60;99.90
51557;DHT22;38766;53.194;5.532;2023-03-23T08:08:31;11.60;99.90
51557;DHT22;38766;53.194;5.532;2023-03-23T08:10:58;11.80;99.90
51557;DHT22;38766;53.194;5.532;2023-03-23T08:13:24;11.90;99.90
51557;DHT22;38766;53.194;5.532;2023-03-23T08:15:50;11.90;99.90
51557;DHT22;38766;53.194;5.532;2023-03-23T08:18:16;12.20;99.90
51557;DHT22;38766;53.194;5.532;2023-03-23T08:20:43;12.30;99.90
51557;DHT22;38766;53.194;5.532;2023-03-23T08:23:10;12.30;99.90
51557;DHT22;38766;53.194;5.532;2023-03-23T08:25:35;12.50;99.90
51557;DHT22;38766;53.194;5.532;2023-03-23T08:28:01;12.50;99.90
51557;DHT22;38766;53.194;5.532;2023-03-23T08:30:28;12.60;99.90
51557;DHT22;38766;53.194;5.532;2023-03-23T08:32:57;12.70;99.90
51557;DHT22;38766;53.194;5.532;2023-03-23T08:35:24;12.80;99.90
51557;DHT22;38766;53.194;5.532;2023-03-23T08:37:50;12.90;99.90
51557;DHT22;38766;53.194;5.532;2023-03-23T08:40:17;12.90;99.90
51557;DHT22;38766;53.194;5.532;2023-03-23T08:42:45;13.10;99.90
51557;DHT22;38766;53.194;5.532;2023-03-23T08:45:14;13.10;99.90
51557;DHT22;38766;53.194;5.532;2023-03-23T08:47:41;13.10;99.90
51557;DHT22;38766;53.194;5.532;2023-03-23T08:50:11;13.20;99.90
51557;DHT22;38766;53.194;5.532;2023-03-23T08:52:38;13.20;99.90
51557;DHT22;38766;53.194;5.532;2023-03-23T08:55:04;13.20;99.90
51557;DHT22;38766;53.194;5.532;2023-03-23T08:57:30;13.20;99.90
51557;DHT22;38766;53.194;5.532;2023-03-23T08:59:56;13.20;99.90
51557;DHT22;38766;53.194;5.532;2023-03-23T09:02:26;13.20;99.90
51557;DHT22;38766;53.194;5.532;2023-03-23T09:04:53;13.20;99.90
51557;DHT22;38766;53.194;5.532;2023-03-23T09:07:19;13.30;99.90
51557;DHT22;38766;53.194;5.532;2023-03-23T09:09:44;13.20;99.90
51557;DHT22;38766;53.194;5.532;2023-03-23T09:12:11;13.10;99.90
51557;DHT22;38766;53.194;5.532;2023-03-23T09:14:37;13.10;99.90
51557;DHT22;38766;53.194;5.532;2023-03-23T09:17:04;13.10;99.90
51557;DHT22;38766;53.194;5.532;2023-03-23T09:19:31;13.10;99.90
51557;DHT22;38766;53.194;5.532;2023-03-23T09:21:58;13.20;99.90
51557;DHT22;38766;53.194;5.532;2023-03-23T09:24:24;13.20;99.90
51557;DHT22;38766;53.194;5.532;2023-03-23T09:26:50;13.20;99.90
51557;DHT22;38766;53.194;5.532;2023-03-23T09:29:16;13.20;99.90
51557;DHT22;38766;53.194;5.532;2023-03-23T09:31:42;13.20;99.90
51557;DHT22;38766;53.194;5.532;2023-03-23T09:34:08;13.20;99.90
51557;DHT22;38766;53.194;5.532;2023-03-23T09:36:36;13.20;99.90
51557;DHT22;38766;53.194;5.532;2023-03-23T09:39:01;13.20;99.90
51557;DHT22;38766;53.194;5.532;2023-03-23T09:47:33;13.50;99.90
51557;DHT22;38766;53.194;5.532;2023-03-23T09:50:09;13.60;99.90
51557;DHT22;38766;53.194;5.532;2023-03-23T09:52:45;13.70;99.90
51557;DHT22;38766;53.194;5.532;2023-03-23T09:55:14;13.70;99.90
51557;DHT22;38766;53.194;5.532;2023-03-23T09:58:08;13.90;99.90
51557;DHT22;38766;53.194;5.532;2023-03-23T10:00:35;13.90;99.90
51557;DHT22;38766;53.194;5.532;2023-03-23T10:03:24;14.00;99.90
51557;DHT22;38766;53.194;5.532;2023-03-23T10:05:53;14.10;99.90
51557;DHT22;38766;53.194;5.532;2023-03-23T10:08:27;14.20;99.90
51557;DHT22;38766;53.194;5.532;2023-03-23T10:16:11;14.50;99.90
51557;DHT22;38766;53.194;5.532;2023-03-23T10:21:46;14.60;99.90
51557;DHT22;38766;53.194;5.532;2023-03-23T10:24:14;14.60;99.90
51557;DHT22;38766;53.194;5.532;2023-03-23T10:27:02;14.60;99.90
51557;DHT22;38766;53.194;5.532;2023-03-23T10:29:36;14.50;99.90
51557;DHT22;38766;53.194;5.532;2023-03-23T10:35:14;14.50;99.90
51557;DHT22;38766;53.194;5.532;2023-03-23T10:37:49;14.50;99.90
51557;DHT22;38766;53.194;5.532;2023-03-23T10:40:19;14.50;99.90
51557;DHT22;38766;53.194;5.532;2023-03-23T10:42:47;14.50;99.90
51557;DHT22;38766;53.194;5.532;2023-03-23T10:45:20;14.50;99.90
51557;DHT22;38766;53.194;5.532;2023-03-23T10:48:07;14.40;99.90
51557;DHT22;38766;53.194;5.532;2023-03-23T10:50:36;14.50;99.90
51557;DHT22;38766;53.194;5.532;2023-03-23T10:53:15;14.40;99.90
51557;DHT22;38766;53.194;5.532;2023-03-23T10:55:42;14.50;99.90
51557;DHT22;38766;53.194;5.532;2023-03-23T10:58:12;14.50;99.90
51557;DHT22;38766;53.194;5.532;2023-03-23T11:00:47;14.60;99.90
51557;DHT22;38766;53.194;5.532;2023-03-23T11:05:47;14.70;99.90
51557;DHT22;38766;53.194;5.532;2023-03-23T11:08:19;14.80;99.90
51557;DHT22;38766;53.194;5.532;2023-03-23T11:10:52;14.80;99.90
51557;DHT22;38766;53.194;5.532;2023-03-23T11:13:20;14.70;99.90
51557;DHT22;38766;53.194;5.532;2023-03-23T11:15:48;14.70;99.90
51557;DHT22;38766;53.194;5.532;2023-03-23T11:20:54;14.80;99.90
51557;DHT22;38766;53.194;5.532;2023-03-23T11:23:28;14.90;99.90
51557;DHT22;38766;53.194;5.532;2023-03-23T11:25:56;14.90;99.90
51557;DHT22;38766;53.194;5.532;2023-03-23T11:28:27;15.00;99.90
51557;DHT22;38766;53.194;5.532;2023-03-23T11:30:55;15.00;99.90
51557;DHT22;38766;53.194;5.532;2023-03-23T11:33:21;15.10;99.90
51557;DHT22;38766;53.194;5.532;2023-03-23T11:35:52;15.20;99.90
51557;DHT22;38766;53.194;5.532;2023-03-23T11:38:21;15.20;99.90
51557;DHT22;38766;53.194;5.532;2023-03-23T11:40:50;15.20;99.90
51557;DHT22;38766;53.194;5.532;2023-03-23T11:43:23;15.20;99.90
51557;DHT22;38766;53.194;5.532;2023-03-23T11:51:08;15.20;99.90
51557;DHT22;38766;53.194;5.532;2023-03-23T11:53:57;15.20;99.90
51557;DHT22;38766;53.194;5.532;2023-03-23T11:56:37;15.10;99.90
51557;DHT22;38766;53.194;5.532;2023-03-23T11:59:12;15.10;99.90
51557;DHT22;38766;53.194;5.532;2023-03-23T12:02:07;15.10;99.90
51557;DHT22;38766;53.194;5.532;2023-03-23T12:05:10;15.20;99.90
51557;DHT22;38766;53.194;5.532;2023-03-23T12:07:48;15.10;99.90
51557;DHT22;38766;53.194;5.532;2023-03-23T12:10:33;15.10;99.90
51557;DHT22;38766;53.194;5.532;2023-03-23T12:16:08;14.90;99.90
51557;DHT22;38766;53.194;5.532;2023-03-23T12:21:47;15.00;99.90
51557;DHT22;38766;53.194;5.532;2023-03-23T12:27:04;14.90;99.90
51557;DHT22;38766;53.194;5.532;2023-03-23T12:29:58;14.90;99.90
51557;DHT22;38766;53.194;5.532;2023-03-23T12:32:35;14.80;99.90
51557;DHT22;38766;53.194;5.532;2023-03-23T12:35:20;14.80;99.90
51557;DHT22;38766;53.194;5.532;2023-03-23T12:40:44;14.90;99.90
51557;DHT22;38766;53.194;5.532;2023-03-23T12:46:14;14.90;99.90
51557;DHT22;38766;53.194;5.532;2023-03-23T12:51:49;14.90;99.90
51557;DHT22;38766;53.194;5.532;2023-03-23T12:54:38;14.90;99.90
51557;DHT22;38766;53.194;5.532;2023-03-23T12:57:12;14.90;99.90
51557;DHT22;38766;53.194;5.532;2023-03-23T12:59:55;15.00;99.90
51557;DHT22;38766;53.194;5.532;2023-03-23T13:04:56;15.00;99.90
51557;DHT22;38766;53.194;5.532;2023-03-23T13:07:28;15.00;99.90
51557;DHT22;38766;53.194;5.532;2023-03-23T13:10:07;15.00;99.90
51557;DHT22;38766;53.194;5.532;2023-03-23T13:12:38;15.00;99.90
51557;DHT22;38766;53.194;5.532;2023-03-23T13:20:54;14.90;99.90
51557;DHT22;38766;53.194;5.532;2023-03-23T13:23:27;14.80;99.90
51557;DHT22;38766;53.194;5.532;2023-03-23T13:25:59;14.80;99.90
51557;DHT22;38766;53.194;5.532;2023-03-23T13:28:30;14.90;99.90
51557;DHT22;38766;53.194;5.532;2023-03-23T13:31:11;14.90;99.90
51557;DHT22;38766;53.194;5.532;2023-03-23T13:33:38;14.80;99.90
51557;DHT22;38766;53.194;5.532;2023-03-23T13:36:08;14.70;99.90
51557;DHT22;38766;53.194;5.532;2023-03-23T13:38:35;14.70;99.90
51557;DHT22;38766;53.194;5.532;2023-03-23T13:41:10;14.60;99.90
51557;DHT22;38766;53.194;5.532;2023-03-23T13:43:38;14.60;99.90
51557;DHT22;38766;53.194;5.532;2023-03-23T13:46:28;14.60;99.90
51557;DHT22;38766;53.194;5.532;2023-03-23T13:49:18;14.70;99.90
51557;DHT22;38766;53.194;5.532;2023-03-23T13:56:43;14.60;99.90
51557;DHT22;38766;53.194;5.532;2023-03-23T14:01:39;14.70;99.90
51557;DHT22;38766;53.194;5.532;2023-03-23T14:04:12;14.70;99.90
51557;DHT22;38766;53.194;5.532;2023-03-23T14:06:40;14.60;99.90
51557;DHT22;38766;53.194;5.532;2023-03-23T14:12:01;14.60;99.90
51557;DHT22;38766;53.194;5.532;2023-03-23T14:14:45;14.70;99.90
51557;DHT22;38766;53.194;5.532;2023-03-23T14:19:46;14.70;99.90
51557;DHT22;38766;53.194;5.532;2023-03-23T14:22:36;14.70;99.90
51557;DHT22;38766;53.194;5.532;2023-03-23T14:25:11;14.80;99.90
51557;DHT22;38766;53.194;5.532;2023-03-23T14:27:36;14.80;99.90
51557;DHT22;38766;53.194;5.532;2023-03-23T14:30:06;14.80;99.90
51557;DHT22;38766;53.194;5.532;2023-03-23T14:32:33;14.80;99.90
51557;DHT22;38766;53.194;5.532;2023-03-23T14:35:12;14.80;99.90
51557;DHT22;38766;53.194;5.532;2023-03-23T14:37:39;14.80;99.90
51557;DHT22;38766;53.194;5.532;2023-03-23T14:40:05;14.70;99.90
51557;DHT22;38766;53.194;5.532;2023-03-23T14:42:34;14.70;99.90
51557;DHT22;38766;53.194;5.532;2023-03-23T14:45:01;14.70;99.90
51557;DHT22;38766;53.194;5.532;2023-03-23T14:49:57;14.60;99.90
51557;DHT22;38766;53.194;5.532;2023-03-23T14:52:26;14.50;99.90
51557;DHT22;38766;53.194;5.532;2023-03-23T14:54:52;14.50;99.90
51557;DHT22;38766;53.194;5.532;2023-03-23T14:59:51;14.50;99.90
51557;DHT22;38766;53.194;5.532;2023-03-23T15:05:01;14.50;99.90
51557;DHT22;38766;53.194;5.532;2023-03-23T15:07:35;14.50;99.90
51557;DHT22;38766;53.194;5.532;2023-03-23T15:10:05;14.40;99.90
51557;DHT22;38766;53.194;5.532;2023-03-23T15:12:31;14.50;99.90
51557;DHT22;38766;53.194;5.532;2023-03-23T15:14:59;14.40;99.90
51557;DHT22;38766;53.194;5.532;2023-03-23T15:17:30;14.40;99.90
51557;DHT22;38766;53.194;5.532;2023-03-23T15:19:57;14.40;99.90
51557;DHT22;38766;53.194;5.532;2023-03-23T15:24:52;14.30;99.90
51557;DHT22;38766;53.194;5.532;2023-03-23T15:27:33;14.30;99.90
51557;DHT22;38766;53.194;5.532;2023-03-23T15:30:11;14.40;99.90
51557;DHT22;38766;53.194;5.532;2023-03-23T15:32:39;14.40;99.90
51557;DHT22;38766;53.194;5.532;2023-03-23T15:35:16;14.30;99.90
51557;DHT22;38766;53.194;5.532;2023-03-23T15:38:02;14.30;99.90
51557;DHT22;38766;53.194;5.532;2023-03-23T15:40:34;14.20;99.90
51557;DHT22;38766;53.194;5.532;2023-03-23T15:43:19;14.20;99.90
51557;DHT22;38766;53.194;5.532;2023-03-23T15:51:23;14.00;99.90
51557;DHT22;38766;53.194;5.532;2023-03-23T15:53:51;13.90;99.90
51557;DHT22;38766;53.194;5.532;2023-03-23T15:56:17;13.90;99.90
51557;DHT22;38766;53.194;5.532;2023-03-23T15:58:43;13.80;99.90
51557;DHT22;38766;53.194;5.532;2023-03-23T16:01:15;13.70;99.90
51557;DHT22;38766;53.194;5.532;2023-03-23T16:03:48;13.70;99.90
51557;DHT22;38766;53.194;5.532;2023-03-23T16:06:16;13.60;99.90
51557;DHT22;38766;53.194;5.532;2023-03-23T16:08:42;13.60;99.90
51557;DHT22;38766;53.194;5.532;2023-03-23T16:11:13;13.60;99.90
51557;DHT22;38766;53.194;5.532;2023-03-23T16:13:39;13.60;99.90
51557;DHT22;38766;53.194;5.532;2023-03-23T16:16:06;13.50;99.90
51557;DHT22;38766;53.194;5.532;2023-03-23T16:18:34;13.50;99.90
51557;DHT22;38766;53.194;5.532;2023-03-23T16:21:00;13.50;99.90
51557;DHT22;38766;53.194;5.532;2023-03-23T16:23:26;13.50;99.90
51557;DHT22;38766;53.194;5.532;2023-03-23T16:25:51;13.50;99.90
51557;DHT22;38766;53.194;5.532;2023-03-23T16:28:17;13.50;99.90
51557;DHT22;38766;53.194;5.532;2023-03-23T16:30:45;13.50;99.90
51557;DHT22;38766;53.194;5.532;2023-03-23T16:33:11;13.40;99.90
51557;DHT22;38766;53.194;5.532;2023-03-23T16:35:37;13.40;99.90
51557;DHT22;38766;53.194;5.532;2023-03-23T16:38:03;13.40;99.90
51557;DHT22;38766;53.194;5.532;2023-03-23T16:40:29;13.30;99.90
51557;DHT22;38766;53.194;5.532;2023-03-23T16:42:55;13.30;99.90
51557;DHT22;38766;53.194;5.532;2023-03-23T16:45:21;13.30;99.90
51557;DHT22;38766;53.194;5.532;2023-03-23T16:47:48;13.20;99.90
51557;DHT22;38766;53.194;5.532;2023-03-23T16:50:16;13.20;99.90
51557;DHT22;38766;53.194;5.532;2023-03-23T16:52:44;13.20;99.90
51557;DHT22;38766;53.194;5.532;2023-03-23T16:55:13;13.10;99.90
51557;DHT22;38766;53.194;5.532;2023-03-23T16:57:39;13.10;99.90
51557;DHT22;38766;53.194;5.532;2023-03-23T17:00:08;13.10;99.90
51557;DHT22;38766;53.194;5.532;2023-03-23T17:02:35;13.10;99.90
51557;DHT22;38766;53.194;5.532;2023-03-23T17:05:01;13.10;99.90
51557;DHT22;38766;53.194;5.532;2023-03-23T17:07:27;13.00;99.90
51557;DHT22;38766;53.194;5.532;2023-03-23T17:09:53;13.00;99.90
51557;DHT22;38766;53.194;5.532;2023-03-23T17:12:19;13.00;99.90
51557;DHT22;38766;53.194;5.532;2023-03-23T17:14:45;13.00;99.90
51557;DHT22;38766;53.194;5.532;2023-03-23T17:17:12;13.00;99.90
51557;DHT22;38766;53.194;5.532;2023-03-23T17:19:38;13.00;99.90
51557;DHT22;38766;53.194;5.532;2023-03-23T17:22:03;13.00;99.90
51557;DHT22;38766;53.194;5.532;2023-03-23T17:24:29;13.00;99.90
51557;DHT22;38766;53.194;5.532;2023-03-23T17:26:55;12.90;99.90
51557;DHT22;38766;53.194;5.532;2023-03-23T17:29:20;12.90;99.90
51557;DHT22;38766;53.194;5.532;2023-03-23T17:31:50;12.90;99.90
51557;DHT22;38766;53.194;5.532;2023-03-23T17:34:17;12.90;99.90